The Hangar Logo

METARs in Plain English
Latest METAR information for EGVN - BRIZE NORTON

EGVN 270450Z 16005KT 6000 -RADZ FEW013 SCT020 BKN026 13/12 Q1020 TEMPO 3000 RADZ SCT006

In plain english is....

This is a METAR report for EGVN - BRIZE NORTON .
The report was made 27 minutes ago, at 04:50 UTC.
The wind was blowing at a speed of 5 knots (5.8 miles per hour, 2.6 metres per second) from the South/Southeast (160°).
The visibility was 3.7 miles (6.0 kilometres).
Weather was Light Rain Drizzle .
There were a few clouds at a height of 1300 feet (396 metres), scattered clouds at a height of 2000 feet (610 metres) and broken clouds at a height of 2600 feet (792 metres).
The temperature was 13°C (55°F), a dew point of 12°C (54°F) and a relative humidity of 93.6%.
The altimeter setting (airfield QNH) was 1,020 hPa (30.12 inHg).
Other remarks TEMPO 3000 RADZ SCT006.

UK Mainland

Ireland

Channel Islands

France

Other



Enter
Tel: 07092 887559 - Fax: 07092 183262

Content copyright © 1999-2016 TheHangar.co.uk. All rights reserved.
Please send your questions, comments, or bug reports to the Webmaster.